sensor_id;sensor_type;location;lat;lon;timestamp;temperature;humidity
79024;DHT22;68424;44.714;37.756;2023-04-03T00:00:13;25.82;39.70
79024;DHT22;68424;44.714;37.756;2023-04-03T00:01:15;25.80;39.70
79024;DHT22;68424;44.714;37.756;2023-04-03T00:02:16;25.80;39.76
79024;DHT22;68424;44.714;37.756;2023-04-03T00:03:18;25.76;39.81
79024;DHT22;68424;44.714;37.756;2023-04-03T00:04:19;25.76;39.71
79024;DHT22;68424;44.714;37.756;2023-04-03T00:05:21;25.82;39.74
79024;DHT22;68424;44.714;37.756;2023-04-03T00:06:23;25.78;39.75
79024;DHT22;68424;44.714;37.756;2023-04-03T00:07:24;25.76;39.83
79024;DHT22;68424;44.714;37.756;2023-04-03T00:08:26;25.78;39.77
79024;DHT22;68424;44.714;37.756;2023-04-03T00:09:27;25.79;39.75
79024;DHT22;68424;44.714;37.756;2023-04-03T00:10:28;25.76;39.78
79024;DHT22;68424;44.714;37.756;2023-04-03T00:11:30;25.79;39.73
79024;DHT22;68424;44.714;37.756;2023-04-03T00:12:31;25.80;39.70
79024;DHT22;68424;44.714;37.756;2023-04-03T00:13:33;25.78;39.73
79024;DHT22;68424;44.714;37.756;2023-04-03T00:14:34;25.80;39.74
79024;DHT22;68424;44.714;37.756;2023-04-03T00:15:37;25.78;39.75
79024;DHT22;68424;44.714;37.756;2023-04-03T00:16:38;25.76;39.73
79024;DHT22;68424;44.714;37.756;2023-04-03T00:17:40;25.78;39.80
79024;DHT22;68424;44.714;37.756;2023-04-03T00:18:42;25.78;39.84
79024;DHT22;68424;44.714;37.756;2023-04-03T00:19:43;25.78;39.79
79024;DHT22;68424;44.714;37.756;2023-04-03T00:20:45;25.79;39.78
79024;DHT22;68424;44.714;37.756;2023-04-03T00:21:46;25.79;39.65
79024;DHT22;68424;44.714;37.756;2023-04-03T00:22:47;25.83;39.69
79024;DHT22;68424;44.714;37.756;2023-04-03T00:23:49;25.78;39.66
79024;DHT22;68424;44.714;37.756;2023-04-03T00:24:51;25.80;39.72
79024;DHT22;68424;44.714;37.756;2023-04-03T00:25:52;25.80;39.70
79024;DHT22;68424;44.714;37.756;2023-04-03T00:26:54;25.80;39.73
79024;DHT22;68424;44.714;37.756;2023-04-03T00:27:55;25.79;39.70
79024;DHT22;68424;44.714;37.756;2023-04-03T00:28:56;25.82;39.67
79024;DHT22;68424;44.714;37.756;2023-04-03T00:29:58;25.86;39.61
79024;DHT22;68424;44.714;37.756;2023-04-03T00:30:59;25.83;39.62
79024;DHT22;68424;44.714;37.756;2023-04-03T00:32:01;25.83;39.75
79024;DHT22;68424;44.714;37.756;2023-04-03T00:33:02;25.79;39.72
79024;DHT22;68424;44.714;37.756;2023-04-03T00:34:04;25.78;39.73
79024;DHT22;68424;44.714;37.756;2023-04-03T00:35:05;25.76;39.69
79024;DHT22;68424;44.714;37.756;2023-04-03T00:36:10;25.78;39.78
79024;DHT22;68424;44.714;37.756;2023-04-03T00:37:11;25.79;39.74
79024;DHT22;68424;44.714;37.756;2023-04-03T00:38:13;25.79;39.67
79024;DHT22;68424;44.714;37.756;2023-04-03T00:39:14;25.79;39.73
79024;DHT22;68424;44.714;37.756;2023-04-03T00:40:16;25.78;39.79
79024;DHT22;68424;44.714;37.756;2023-04-03T00:41:17;25.76;39.73
79024;DHT22;68424;44.714;37.756;2023-04-03T00:42:19;25.78;39.78
79024;DHT22;68424;44.714;37.756;2023-04-03T00:43:24;25.80;39.75
79024;DHT22;68424;44.714;37.756;2023-04-03T00:45:35;25.78;39.75
79024;DHT22;68424;44.714;37.756;2023-04-03T00:46:37;25.79;39.75
79024;DHT22;68424;44.714;37.756;2023-04-03T00:47:39;25.75;39.77
79024;DHT22;68424;44.714;37.756;2023-04-03T00:48:44;25.78;39.77
79024;DHT22;68424;44.714;37.756;2023-04-03T00:49:45;25.76;39.73
79024;DHT22;68424;44.714;37.756;2023-04-03T00:50:48;25.79;39.67
79024;DHT22;68424;44.714;37.756;2023-04-03T00:51:50;25.80;39.66
79024;DHT22;68424;44.714;37.756;2023-04-03T00:52:53;25.76;39.75
79024;DHT22;68424;44.714;37.756;2023-04-03T00:53:59;25.76;39.75
79024;DHT22;68424;44.714;37.756;2023-04-03T00:55:04;25.75;39.77
79024;DHT22;68424;44.714;37.756;2023-04-03T00:56:11;25.78;39.74
79024;DHT22;68424;44.714;37.756;2023-04-03T00:57:14;25.76;39.81
79024;DHT22;68424;44.714;37.756;2023-04-03T00:58:18;25.76;39.82
79024;DHT22;68424;44.714;37.756;2023-04-03T00:59:25;25.78;39.69
79024;DHT22;68424;44.714;37.756;2023-04-03T01:00:28;25.75;39.82
79024;DHT22;68424;44.714;37.756;2023-04-03T01:01:29;25.73;39.77
79024;DHT22;68424;44.714;37.756;2023-04-03T01:02:31;25.73;39.82
79024;DHT22;68424;44.714;37.756;2023-04-03T01:03:33;25.76;39.81
79024;DHT22;68424;44.714;37.756;2023-04-03T01:04:40;25.78;39.74
79024;DHT22;68424;44.714;37.756;2023-04-03T01:05:42;25.75;39.73
79024;DHT22;68424;44.714;37.756;2023-04-03T01:06:43;25.80;39.75
79024;DHT22;68424;44.714;37.756;2023-04-03T01:07:45;25.82;39.65
79024;DHT22;68424;44.714;37.756;2023-04-03T01:08:48;25.78;39.65
79024;DHT22;68424;44.714;37.756;2023-04-03T01:09:53;25.80;39.68
79024;DHT22;68424;44.714;37.756;2023-04-03T01:10:56;25.79;39.70
79024;DHT22;68424;44.714;37.756;2023-04-03T01:12:20;25.86;39.64
79024;DHT22;68424;44.714;37.756;2023-04-03T01:13:24;25.86;39.52
79024;DHT22;68424;44.714;37.756;2023-04-03T01:14:25;25.85;39.47
79024;DHT22;68424;44.714;37.756;2023-04-03T01:15:27;25.85;39.53
79024;DHT22;68424;44.714;37.756;2023-04-03T01:16:31;25.85;39.58
79024;DHT22;68424;44.714;37.756;2023-04-03T01:17:38;25.82;39.61
79024;DHT22;68424;44.714;37.756;2023-04-03T01:18:40;25.80;39.66
79024;DHT22;68424;44.714;37.756;2023-04-03T01:19:45;25.79;39.66
79024;DHT22;68424;44.714;37.756;2023-04-03T01:22:19;25.80;39.65
79024;DHT22;68424;44.714;37.756;2023-04-03T01:24:36;25.80;39.61
79024;DHT22;68424;44.714;37.756;2023-04-03T01:25:50;25.79;39.66
79024;DHT22;68424;44.714;37.756;2023-04-03T01:26:52;25.78;39.73
79024;DHT22;68424;44.714;37.756;2023-04-03T01:27:53;25.78;39.75
79024;DHT22;68424;44.714;37.756;2023-04-03T01:28:55;25.79;39.70
79024;DHT22;68424;44.714;37.756;2023-04-03T01:29:56;25.82;39.68
79024;DHT22;68424;44.714;37.756;2023-04-03T01:31:15;25.79;39.72
79024;DHT22;68424;44.714;37.756;2023-04-03T01:32:21;25.80;40.12
79024;DHT22;68424;44.714;37.756;2023-04-03T01:33:22;25.82;40.19
79024;DHT22;68424;44.714;37.756;2023-04-03T01:34:24;25.82;39.69
79024;DHT22;68424;44.714;37.756;2023-04-03T01:35:26;25.79;39.47
79024;DHT22;68424;44.714;37.756;2023-04-03T01:36:30;25.80;39.29
79024;DHT22;68424;44.714;37.756;2023-04-03T01:37:31;25.78;39.38
79024;DHT22;68424;44.714;37.756;2023-04-03T01:38:33;25.80;39.41
79024;DHT22;68424;44.714;37.756;2023-04-03T01:39:34;25.82;39.19
79024;DHT22;68424;44.714;37.756;2023-04-03T01:40:35;25.80;39.08
79024;DHT22;68424;44.714;37.756;2023-04-03T01:41:37;25.80;39.09
79024;DHT22;68424;44.714;37.756;2023-04-03T01:42:47;25.79;39.16
79024;DHT22;68424;44.714;37.756;2023-04-03T01:43:48;25.79;39.19
79024;DHT22;68424;44.714;37.756;2023-04-03T01:44:50;25.79;39.14
79024;DHT22;68424;44.714;37.756;2023-04-03T01:45:51;25.82;39.16
79024;DHT22;68424;44.714;37.756;2023-04-03T01:46:55;25.80;39.04
79024;DHT22;68424;44.714;37.756;2023-04-03T01:47:58;25.83;39.01
79024;DHT22;68424;44.714;37.756;2023-04-03T01:49:00;25.80;39.01
79024;DHT22;68424;44.714;37.756;2023-04-03T01:50:02;25.79;38.99
79024;DHT22;68424;44.714;37.756;2023-04-03T01:51:06;25.83;39.06
79024;DHT22;68424;44.714;37.756;2023-04-03T01:52:08;25.80;39.09
79024;DHT22;68424;44.714;37.756;2023-04-03T01:53:09;25.78;39.13
79024;DHT22;68424;44.714;37.756;2023-04-03T01:54:10;25.79;39.20
79024;DHT22;68424;44.714;37.756;2023-04-03T01:55:11;25.80;38.98
79024;DHT22;68424;44.714;37.756;2023-04-03T01:56:13;25.83;38.93
79024;DHT22;68424;44.714;37.756;2023-04-03T01:57:15;25.83;38.91
79024;DHT22;68424;44.714;37.756;2023-04-03T01:58:17;25.79;39.10
79024;DHT22;68424;44.714;37.756;2023-04-03T01:59:18;25.82;38.98
79024;DHT22;68424;44.714;37.756;2023-04-03T02:00:20;25.80;38.98
79024;DHT22;68424;44.714;37.756;2023-04-03T02:01:21;25.79;39.09
79024;DHT22;68424;44.714;37.756;2023-04-03T02:02:23;25.76;39.06
79024;DHT22;68424;44.714;37.756;2023-04-03T02:03:26;25.79;39.17
79024;DHT22;68424;44.714;37.756;2023-04-03T02:04:28;25.78;39.09
79024;DHT22;68424;44.714;37.756;2023-04-03T02:05:29;25.78;39.09
79024;DHT22;68424;44.714;37.756;2023-04-03T02:06:30;25.75;39.13
79024;DHT22;68424;44.714;37.756;2023-04-03T02:07:32;25.75;39.13
79024;DHT22;68424;44.714;37.756;2023-04-03T02:08:33;25.78;39.11
79024;DHT22;68424;44.714;37.756;2023-04-03T02:09:35;25.80;39.09
79024;DHT22;68424;44.714;37.756;2023-04-03T02:10:37;25.78;39.05
79024;DHT22;68424;44.714;37.756;2023-04-03T02:11:38;25.71;39.19
79024;DHT22;68424;44.714;37.756;2023-04-03T02:12:39;25.72;39.19
79024;DHT22;68424;44.714;37.756;2023-04-03T02:13:41;25.75;39.22
79024;DHT22;68424;44.714;37.756;2023-04-03T02:14:42;25.76;39.18
79024;DHT22;68424;44.714;37.756;2023-04-03T02:15:46;25.75;39.18
79024;DHT22;68424;44.714;37.756;2023-04-03T02:16:51;25.78;39.22
79024;DHT22;68424;44.714;37.756;2023-04-03T02:17:52;25.79;39.10
79024;DHT22;68424;44.714;37.756;2023-04-03T02:18:54;25.78;39.17
79024;DHT22;68424;44.714;37.756;2023-04-03T02:19:56;25.78;39.11
79024;DHT22;68424;44.714;37.756;2023-04-03T02:20:58;25.76;39.21
79024;DHT22;68424;44.714;37.756;2023-04-03T02:22:04;25.75;39.18
79024;DHT22;68424;44.714;37.756;2023-04-03T02:23:06;25.78;39.07
79024;DHT22;68424;44.714;37.756;2023-04-03T02:24:07;25.79;39.03
79024;DHT22;68424;44.714;37.756;2023-04-03T02:25:09;25.78;39.00
79024;DHT22;68424;44.714;37.756;2023-04-03T02:26:13;25.79;39.05
79024;DHT22;68424;44.714;37.756;2023-04-03T02:27:14;25.73;39.14
79024;DHT22;68424;44.714;37.756;2023-04-03T02:28:16;25.79;39.03
79024;DHT22;68424;44.714;37.756;2023-04-03T02:29:17;25.75;39.06
79024;DHT22;68424;44.714;37.756;2023-04-03T02:30:19;25.73;39.26
79024;DHT22;68424;44.714;37.756;2023-04-03T02:31:20;25.72;39.27
79024;DHT22;68424;44.714;37.756;2023-04-03T02:32:22;25.73;39.24
79024;DHT22;68424;44.714;37.756;2023-04-03T02:33:24;25.73;39.12
79024;DHT22;68424;44.714;37.756;2023-04-03T02:34:26;25.71;39.18
79024;DHT22;68424;44.714;37.756;2023-04-03T02:35:28;25.71;39.15
79024;DHT22;68424;44.714;37.756;2023-04-03T02:36:31;25.72;39.17
79024;DHT22;68424;44.714;37.756;2023-04-03T02:37:34;25.75;39.10
79024;DHT22;68424;44.714;37.756;2023-04-03T02:38:36;25.71;39.21
79024;DHT22;68424;44.714;37.756;2023-04-03T02:39:37;25.72;39.18
79024;DHT22;68424;44.714;37.756;2023-04-03T02:40:39;25.72;39.14
79024;DHT22;68424;44.714;37.756;2023-04-03T02:41:40;25.69;39.19
79024;DHT22;68424;44.714;37.756;2023-04-03T02:42:47;25.72;39.04
79024;DHT22;68424;44.714;37.756;2023-04-03T02:43:49;25.72;39.07
79024;DHT22;68424;44.714;37.756;2023-04-03T02:44:51;25.71;39.14
79024;DHT22;68424;44.714;37.756;2023-04-03T02:45:52;25.68;39.27
79024;DHT22;68424;44.714;37.756;2023-04-03T02:46:53;25.65;39.28
79024;DHT22;68424;44.714;37.756;2023-04-03T02:47:55;25.62;39.29
79024;DHT22;68424;44.714;37.756;2023-04-03T02:48:56;25.63;39.43
79024;DHT22;68424;44.714;37.756;2023-04-03T02:49:58;25.62;39.44
79024;DHT22;68424;44.714;37.756;2023-04-03T02:50:59;25.66;39.37
79024;DHT22;68424;44.714;37.756;2023-04-03T02:52:00;25.68;39.28
79024;DHT22;68424;44.714;37.756;2023-04-03T02:53:02;25.66;39.19
79024;DHT22;68424;44.714;37.756;2023-04-03T02:54:03;25.63;39.14
79024;DHT22;68424;44.714;37.756;2023-04-03T02:55:08;25.66;39.36
79024;DHT22;68424;44.714;37.756;2023-04-03T02:56:09;25.68;39.28
79024;DHT22;68424;44.714;37.756;2023-04-03T02:57:11;25.66;39.36
79024;DHT22;68424;44.714;37.756;2023-04-03T02:58:12;25.66;39.25
79024;DHT22;68424;44.714;37.756;2023-04-03T02:59:13;25.65;39.21
79024;DHT22;68424;44.714;37.756;2023-04-03T03:00:16;25.63;39.18
79024;DHT22;68424;44.714;37.756;2023-04-03T03:01:17;25.66;39.21
79024;DHT22;68424;44.714;37.756;2023-04-03T03:02:19;25.65;39.29
79024;DHT22;68424;44.714;37.756;2023-04-03T03:03:20;25.66;39.28
79024;DHT22;68424;44.714;37.756;2023-04-03T03:04:21;25.68;39.19
79024;DHT22;68424;44.714;37.756;2023-04-03T03:05:23;25.69;39.17
79024;DHT22;68424;44.714;37.756;2023-04-03T03:06:24;25.69;39.27
79024;DHT22;68424;44.714;37.756;2023-04-03T03:07:25;25.68;39.15
79024;DHT22;68424;44.714;37.756;2023-04-03T03:08:27;25.69;39.16
79024;DHT22;68424;44.714;37.756;2023-04-03T03:09:28;25.68;39.12
79024;DHT22;68424;44.714;37.756;2023-04-03T03:10:30;25.69;39.21
79024;DHT22;68424;44.714;37.756;2023-04-03T03:11:31;25.66;39.25
79024;DHT22;68424;44.714;37.756;2023-04-03T03:12:33;25.65;39.28
79024;DHT22;68424;44.714;37.756;2023-04-03T03:13:34;25.66;39.24
79024;DHT22;68424;44.714;37.756;2023-04-03T03:14:36;25.68;39.28
79024;DHT22;68424;44.714;37.756;2023-04-03T03:15:37;25.66;39.23
79024;DHT22;68424;44.714;37.756;2023-04-03T03:16:39;25.72;39.19
79024;DHT22;68424;44.714;37.756;2023-04-03T03:17:40;25.71;39.12
79024;DHT22;68424;44.714;37.756;2023-04-03T03:18:42;25.69;39.11
79024;DHT22;68424;44.714;37.756;2023-04-03T03:19:43;25.66;39.14
79024;DHT22;68424;44.714;37.756;2023-04-03T03:20:45;25.68;39.17
79024;DHT22;68424;44.714;37.756;2023-04-03T03:21:46;25.68;39.44
79024;DHT22;68424;44.714;37.756;2023-04-03T03:22:47;25.65;39.37
79024;DHT22;68424;44.714;37.756;2023-04-03T03:23:48;25.65;39.41
79024;DHT22;68424;44.714;37.756;2023-04-03T03:24:50;25.62;39.39
79024;DHT22;68424;44.714;37.756;2023-04-03T03:25:59;25.61;39.45
79024;DHT22;68424;44.714;37.756;2023-04-03T03:27:01;25.62;39.32
79024;DHT22;68424;44.714;37.756;2023-04-03T03:28:02;25.62;39.35
79024;DHT22;68424;44.714;37.756;2023-04-03T03:29:03;25.59;39.37
79024;DHT22;68424;44.714;37.756;2023-04-03T03:30:05;25.57;39.40
79024;DHT22;68424;44.714;37.756;2023-04-03T03:31:08;25.58;39.37
79024;DHT22;68424;44.714;37.756;2023-04-03T03:32:12;25.58;39.37
79024;DHT22;68424;44.714;37.756;2023-04-03T03:33:14;25.62;39.34
79024;DHT22;68424;44.714;37.756;2023-04-03T03:34:15;25.59;39.31
79024;DHT22;68424;44.714;37.756;2023-04-03T03:35:17;25.63;39.25
79024;DHT22;68424;44.714;37.756;2023-04-03T03:36:18;25.63;39.16
79024;DHT22;68424;44.714;37.756;2023-04-03T03:37:19;25.63;39.19
79024;DHT22;68424;44.714;37.756;2023-04-03T03:38:21;25.61;39.31
79024;DHT22;68424;44.714;37.756;2023-04-03T03:39:23;25.58;39.38
79024;DHT22;68424;44.714;37.756;2023-04-03T03:40:24;25.57;39.37
79024;DHT22;68424;44.714;37.756;2023-04-03T03:41:26;25.55;39.39
79024;DHT22;68424;44.714;37.756;2023-04-03T03:42:27;25.52;39.37
79024;DHT22;68424;44.714;37.756;2023-04-03T03:43:28;25.57;39.49
79024;DHT22;68424;44.714;37.756;2023-04-03T03:44:30;25.55;39.36
79024;DHT22;68424;44.714;37.756;2023-04-03T03:45:32;25.52;39.46
79024;DHT22;68424;44.714;37.756;2023-04-03T03:46:33;25.52;39.41
79024;DHT22;68424;44.714;37.756;2023-04-03T03:47:35;25.51;39.53
79024;DHT22;68424;44.714;37.756;2023-04-03T03:48:37;25.48;39.51
79024;DHT22;68424;44.714;37.756;2023-04-03T03:49:38;25.48;39.44
79024;DHT22;68424;44.714;37.756;2023-04-03T03:50:39;25.44;39.57
79024;DHT22;68424;44.714;37.756;2023-04-03T03:51:41;25.38;39.71
79024;DHT22;68424;44.714;37.756;2023-04-03T03:52:42;25.33;39.82
79024;DHT22;68424;44.714;37.756;2023-04-03T03:53:43;25.31;40.06
79024;DHT22;68424;44.714;37.756;2023-04-03T03:54:48;25.24;39.99
79024;DHT22;68424;44.714;37.756;2023-04-03T03:55:50;25.27;40.08
79024;DHT22;68424;44.714;37.756;2023-04-03T03:56:54;25.24;39.90
79024;DHT22;68424;44.714;37.756;2023-04-03T03:57:57;25.33;39.84
79024;DHT22;68424;44.714;37.756;2023-04-03T03:58:59;25.33;40.02
79024;DHT22;68424;44.714;37.756;2023-04-03T04:00:00;25.35;39.87
79024;DHT22;68424;44.714;37.756;2023-04-03T04:01:03;25.39;39.80
79024;DHT22;68424;44.714;37.756;2023-04-03T04:02:07;25.44;39.63
79024;DHT22;68424;44.714;37.756;2023-04-03T04:03:09;25.44;39.76
79024;DHT22;68424;44.714;37.756;2023-04-03T04:04:10;25.42;39.72
79024;DHT22;68424;44.714;37.756;2023-04-03T04:05:12;25.42;39.66
79024;DHT22;68424;44.714;37.756;2023-04-03T04:06:13;25.42;39.75
79024;DHT22;68424;44.714;37.756;2023-04-03T04:07:14;25.49;39.55
79024;DHT22;68424;44.714;37.756;2023-04-03T04:08:16;25.48;39.64
79024;DHT22;68424;44.714;37.756;2023-04-03T04:09:19;25.48;39.53
79024;DHT22;68424;44.714;37.756;2023-04-03T04:10:20;25.52;39.41
79024;DHT22;68424;44.714;37.756;2023-04-03T04:11:22;25.57;39.37
79024;DHT22;68424;44.714;37.756;2023-04-03T04:12:24;25.57;39.27
79024;DHT22;68424;44.714;37.756;2023-04-03T04:13:26;25.58;39.34
79024;DHT22;68424;44.714;37.756;2023-04-03T04:14:27;25.58;39.35
79024;DHT22;68424;44.714;37.756;2023-04-03T04:15:29;25.59;39.38
79024;DHT22;68424;44.714;37.756;2023-04-03T04:16:31;25.61;39.34
79024;DHT22;68424;44.714;37.756;2023-04-03T04:17:37;25.62;39.32
79024;DHT22;68424;44.714;37.756;2023-04-03T04:18:41;25.63;39.18
79024;DHT22;68424;44.714;37.756;2023-04-03T04:19:42;25.65;39.16
79024;DHT22;68424;44.714;37.756;2023-04-03T04:20:45;25.68;39.08
79024;DHT22;68424;44.714;37.756;2023-04-03T04:21:47;25.66;39.28
79024;DHT22;68424;44.714;37.756;2023-04-03T04:22:48;25.68;39.17
79024;DHT22;68424;44.714;37.756;2023-04-03T04:23:51;25.66;39.29
79024;DHT22;68424;44.714;37.756;2023-04-03T04:24:52;25.62;39.29
79024;DHT22;68424;44.714;37.756;2023-04-03T04:25:53;25.52;39.39
79024;DHT22;68424;44.714;37.756;2023-04-03T04:26:55;25.51;39.51
79024;DHT22;68424;44.714;37.756;2023-04-03T04:27:57;25.48;39.57
79024;DHT22;68424;44.714;37.756;2023-04-03T04:28:59;25.54;39.50
79024;DHT22;68424;44.714;37.756;2023-04-03T04:30:02;25.57;39.41
79024;DHT22;68424;44.714;37.756;2023-04-03T04:31:03;25.59;39.46
79024;DHT22;68424;44.714;37.756;2023-04-03T04:32:05;25.61;39.47
79024;DHT22;68424;44.714;37.756;2023-04-03T04:33:07;25.59;39.40
79024;DHT22;68424;44.714;37.756;2023-04-03T04:34:09;25.65;39.66
79024;DHT22;68424;44.714;37.756;2023-04-03T04:35:11;25.62;39.52
79024;DHT22;68424;44.714;37.756;2023-04-03T04:36:16;25.61;39.85
79024;DHT22;68424;44.714;37.756;2023-04-03T04:37:20;25.61;39.74
79024;DHT22;68424;44.714;37.756;2023-04-03T04:38:22;25.59;39.67
79024;DHT22;68424;44.714;37.756;2023-04-03T04:39:26;25.62;39.69
79024;DHT22;68424;44.714;37.756;2023-04-03T04:40:29;25.68;39.58
79024;DHT22;68424;44.714;37.756;2023-04-03T04:41:31;25.69;39.59
79024;DHT22;68424;44.714;37.756;2023-04-03T04:42:34;25.73;39.53
79024;DHT22;68424;44.714;37.756;2023-04-03T04:43:36;25.73;39.52
79024;DHT22;68424;44.714;37.756;2023-04-03T04:44:38;25.76;39.51
79024;DHT22;68424;44.714;37.756;2023-04-03T04:45:40;25.78;39.56
79024;DHT22;68424;44.714;37.756;2023-04-03T04:46:41;25.73;39.53
79024;DHT22;68424;44.714;37.756;2023-04-03T04:47:43;25.75;39.52
79024;DHT22;68424;44.714;37.756;2023-04-03T04:48:44;25.73;39.52
79024;DHT22;68424;44.714;37.756;2023-04-03T04:49:47;25.79;39.47
79024;DHT22;68424;44.714;37.756;2023-04-03T04:50:49;25.75;39.54
79024;DHT22;68424;44.714;37.756;2023-04-03T04:51:50;25.78;39.45
79024;DHT22;68424;44.714;37.756;2023-04-03T04:52:53;25.78;39.45
79024;DHT22;68424;44.714;37.756;2023-04-03T04:53:54;25.73;39.52
79024;DHT22;68424;44.714;37.756;2023-04-03T04:54:56;25.76;39.54
79024;DHT22;68424;44.714;37.756;2023-04-03T04:55:57;25.76;39.56
79024;DHT22;68424;44.714;37.756;2023-04-03T04:56:59;25.76;39.54
79024;DHT22;68424;44.714;37.756;2023-04-03T04:58:01;25.76;39.53
79024;DHT22;68424;44.714;37.756;2023-04-03T04:59:03;25.76;39.51
79024;DHT22;68424;44.714;37.756;2023-04-03T05:00:05;25.76;39.51
79024;DHT22;68424;44.714;37.756;2023-04-03T05:01:09;25.76;39.52
79024;DHT22;68424;44.714;37.756;2023-04-03T05:02:16;25.75;39.49
79024;DHT22;68424;44.714;37.756;2023-04-03T05:03:18;25.78;39.52
79024;DHT22;68424;44.714;37.756;2023-04-03T05:04:20;25.80;39.46
79024;DHT22;68424;44.714;37.756;2023-04-03T05:05:25;25.79;39.40
79024;DHT22;68424;44.714;37.756;2023-04-03T05:06:27;25.79;39.40
79024;DHT22;68424;44.714;37.756;2023-04-03T05:07:30;25.80;39.39
79024;DHT22;68424;44.714;37.756;2023-04-03T05:08:33;25.78;39.43
79024;DHT22;68424;44.714;37.756;2023-04-03T05:09:35;25.82;39.43
79024;DHT22;68424;44.714;37.756;2023-04-03T05:10:37;25.80;39.37
79024;DHT22;68424;44.714;37.756;2023-04-03T05:11:39;25.79;39.39
79024;DHT22;68424;44.714;37.756;2023-04-03T05:12:41;25.78;39.43
79024;DHT22;68424;44.714;37.756;2023-04-03T05:13:43;25.78;39.43
79024;DHT22;68424;44.714;37.756;2023-04-03T05:14:44;25.76;39.42
79024;DHT22;68424;44.714;37.756;2023-04-03T05:15:46;25.80;39.43
79024;DHT22;68424;44.714;37.756;2023-04-03T05:16:48;25.78;39.39
79024;DHT22;68424;44.714;37.756;2023-04-03T05:17:49;25.80;39.42
79024;DHT22;68424;44.714;37.756;2023-04-03T05:18:52;25.82;39.35
79024;DHT22;68424;44.714;37.756;2023-04-03T05:19:56;25.79;39.40
79024;DHT22;68424;44.714;37.756;2023-04-03T05:20:58;25.78;39.46
79024;DHT22;68424;44.714;37.756;2023-04-03T05:22:01;25.80;39.40
79024;DHT22;68424;44.714;37.756;2023-04-03T05:23:04;25.79;39.36
79024;DHT22;68424;44.714;37.756;2023-04-03T05:24:07;25.80;39.39
79024;DHT22;68424;44.714;37.756;2023-04-03T05:25:13;25.83;39.38
79024;DHT22;68424;44.714;37.756;2023-04-03T05:26:17;25.85;39.30
79024;DHT22;68424;44.714;37.756;2023-04-03T05:27:22;25.85;39.30
79024;DHT22;68424;44.714;37.756;2023-04-03T05:28:28;25.85;39.26
79024;DHT22;68424;44.714;37.756;2023-04-03T05:29:29;25.85;39.31
79024;DHT22;68424;44.714;37.756;2023-04-03T05:30:33;25.86;39.30
79024;DHT22;68424;44.714;37.756;2023-04-03T05:31:36;25.85;39.27
79024;DHT22;68424;44.714;37.756;2023-04-03T05:32:38;25.86;39.27
79024;DHT22;68424;44.714;37.756;2023-04-03T05:34:05;25.90;39.19
79024;DHT22;68424;44.714;37.756;2023-04-03T05:35:10;25.90;39.14
79024;DHT22;68424;44.714;37.756;2023-04-03T05:36:11;25.92;39.14
79024;DHT22;68424;44.714;37.756;2023-04-03T05:37:18;25.93;39.10
79024;DHT22;68424;44.714;37.756;2023-04-03T05:38:20;25.93;39.06
79024;DHT22;68424;44.714;37.756;2023-04-03T05:39:21;25.94;39.06
79024;DHT22;68424;44.714;37.756;2023-04-03T05:40:24;25.93;39.07
79024;DHT22;68424;44.714;37.756;2023-04-03T05:41:28;25.90;39.11
79024;DHT22;68424;44.714;37.756;2023-04-03T05:42:29;25.89;39.22
79024;DHT22;68424;44.714;37.756;2023-04-03T05:43:31;25.89;39.19
79024;DHT22;68424;44.714;37.756;2023-04-03T05:44:33;25.88;39.19
79024;DHT22;68424;44.714;37.756;2023-04-03T05:45:35;25.89;39.15
79024;DHT22;68424;44.714;37.756;2023-04-03T05:46:36;25.89;39.15
79024;DHT22;68424;44.714;37.756;2023-04-03T05:47:40;25.90;39.18
79024;DHT22;68424;44.714;37.756;2023-04-03T05:48:43;25.89;39.21
79024;DHT22;68424;44.714;37.756;2023-04-03T05:49:47;25.86;39.19
79024;DHT22;68424;44.714;37.756;2023-04-03T05:50:51;25.86;39.20
79024;DHT22;68424;44.714;37.756;2023-04-03T05:51:57;25.85;39.30
79024;DHT22;68424;44.714;37.756;2023-04-03T05:53:02;25.83;39.30
79024;DHT22;68424;44.714;37.756;2023-04-03T05:54:13;25.86;39.23
79024;DHT22;68424;44.714;37.756;2023-04-03T05:55:17;25.88;39.23
79024;DHT22;68424;44.714;37.756;2023-04-03T05:56:19;25.88;39.18
79024;DHT22;68424;44.714;37.756;2023-04-03T05:57:21;25.90;39.16
79024;DHT22;68424;44.714;37.756;2023-04-03T05:58:22;25.93;39.13
79024;DHT22;68424;44.714;37.756;2023-04-03T05:59:25;25.92;39.08
79024;DHT22;68424;44.714;37.756;2023-04-03T06:00:29;25.92;39.13
79024;DHT22;68424;44.714;37.756;2023-04-03T06:01:35;25.89;39.10
79024;DHT22;68424;44.714;37.756;2023-04-03T06:02:37;25.88;39.21
79024;DHT22;68424;44.714;37.756;2023-04-03T06:03:38;25.86;39.18
79024;DHT22;68424;44.714;37.756;2023-04-03T06:04:41;25.90;39.22
79024;DHT22;68424;44.714;37.756;2023-04-03T06:05:43;25.90;39.19
79024;DHT22;68424;44.714;37.756;2023-04-03T06:06:54;25.90;39.18
79024;DHT22;68424;44.714;37.756;2023-04-03T06:07:56;25.90;39.09
79024;DHT22;68424;44.714;37.756;2023-04-03T06:08:59;25.89;39.13
79024;DHT22;68424;44.714;37.756;2023-04-03T06:10:00;25.90;39.18
79024;DHT22;68424;44.714;37.756;2023-04-03T06:11:02;25.89;39.15
79024;DHT22;68424;44.714;37.756;2023-04-03T06:12:04;25.88;39.19
79024;DHT22;68424;44.714;37.756;2023-04-03T06:13:06;25.86;39.18
79024;DHT22;68424;44.714;37.756;2023-04-03T06:14:08;25.86;39.19
79024;DHT22;68424;44.714;37.756;2023-04-03T06:15:10;25.90;39.15
79024;DHT22;68424;44.714;37.756;2023-04-03T06:16:16;25.89;39.17
79024;DHT22;68424;44.714;37.756;2023-04-03T06:17:18;25.89;39.19
79024;DHT22;68424;44.714;37.756;2023-04-03T06:18:19;25.89;39.18
79024;DHT22;68424;44.714;37.756;2023-04-03T06:19:22;25.90;39.15
79024;DHT22;68424;44.714;37.756;2023-04-03T06:20:27;25.88;39.19
79024;DHT22;68424;44.714;37.756;2023-04-03T06:21:28;25.89;39.13
79024;DHT22;68424;44.714;37.756;2023-04-03T06:22:30;25.92;39.14
79024;DHT22;68424;44.714;37.756;2023-04-03T06:23:31;25.94;39.07
79024;DHT22;68424;44.714;37.756;2023-04-03T06:24:33;25.96;39.04
79024;DHT22;68424;44.714;37.756;2023-04-03T06:25:35;25.96;39.04
79024;DHT22;68424;44.714;37.756;2023-04-03T06:26:36;25.94;38.98
79024;DHT22;68424;44.714;37.756;2023-04-03T06:27:38;25.96;39.01
79024;DHT22;68424;44.714;37.756;2023-04-03T06:28:39;25.94;38.99
79024;DHT22;68424;44.714;37.756;2023-04-03T06:29:40;25.93;39.03
79024;DHT22;68424;44.714;37.756;2023-04-03T06:30:42;25.94;39.09
79024;DHT22;68424;44.714;37.756;2023-04-03T06:31:44;25.94;39.08